createdAt,value
2023-04-26T00:02:13.159Z,100.00
2023-04-26T00:04:40.184Z,100.00
2023-04-26T00:07:07.644Z,100.00
2023-04-26T00:09:34.189Z,100.00
2023-04-26T00:12:00.799Z,100.00
2023-04-26T00:14:27.458Z,100.00
2023-04-26T00:16:54.149Z,100.00
2023-04-26T00:19:21.437Z,100.00
2023-04-26T00:21:47.924Z,100.00
2023-04-26T00:24:14.624Z,100.00
2023-04-26T00:26:41.176Z,100.00
2023-04-26T00:29:07.747Z,100.00
2023-04-26T00:31:34.303Z,100.00
2023-04-26T00:34:00.837Z,100.00
2023-04-26T00:36:27.823Z,100.00
2023-04-26T00:38:54.542Z,100.00
2023-04-26T00:41:22.629Z,100.00
2023-04-26T00:43:49.212Z,100.00
2023-04-26T00:46:15.837Z,100.00
2023-04-26T00:48:42.692Z,100.00
2023-04-26T00:51:09.758Z,100.00
2023-04-26T00:53:36.612Z,100.00
2023-04-26T00:56:04.015Z,100.00
2023-04-26T00:58:30.576Z,100.00
2023-04-26T01:00:57.216Z,100.00
2023-04-26T01:03:24.495Z,100.00
2023-04-26T01:05:51.310Z,100.00
2023-04-26T01:08:20.970Z,100.00
2023-04-26T01:10:50.855Z,100.00
2023-04-26T01:13:17.447Z,100.00
2023-04-26T01:15:48.230Z,100.00
2023-04-26T01:18:15.246Z,100.00
2023-04-26T01:20:42.966Z,100.00
2023-04-26T01:23:10.525Z,100.00
2023-04-26T01:25:37.444Z,100.00
2023-04-26T01:28:04.122Z,100.00
2023-04-26T01:30:30.672Z,100.00
2023-04-26T01:32:57.304Z,100.00
2023-04-26T01:35:23.859Z,100.00
2023-04-26T01:37:50.414Z,100.00
2023-04-26T01:40:17.041Z,100.00
2023-04-26T01:42:43.664Z,100.00
2023-04-26T01:45:10.781Z,100.00
2023-04-26T01:47:37.691Z,100.00
2023-04-26T01:50:04.603Z,100.00
2023-04-26T01:52:31.309Z,100.00
2023-04-26T01:54:57.962Z,100.00
2023-04-26T01:57:24.508Z,100.00
2023-04-26T01:59:51.072Z,100.00
2023-04-26T02:02:18.810Z,100.00
2023-04-26T02:04:45.553Z,100.00
2023-04-26T02:07:12.201Z,100.00
2023-04-26T02:09:38.757Z,100.00
2023-04-26T02:12:05.414Z,100.00
2023-04-26T02:14:32.465Z,100.00
2023-04-26T02:16:59.060Z,100.00
2023-04-26T02:19:25.958Z,100.00
2023-04-26T02:21:57.906Z,100.00
2023-04-26T02:24:25.236Z,100.00
2023-04-26T02:26:53.108Z,100.00
2023-04-26T02:29:24.630Z,100.00
2023-04-26T02:32:02.905Z,100.00
2023-04-26T02:34:29.615Z,100.00
2023-04-26T02:36:56.191Z,100.00
2023-04-26T02:39:22.784Z,100.00
2023-04-26T02:41:49.337Z,100.00
2023-04-26T02:44:15.867Z,100.00
2023-04-26T02:46:42.551Z,100.00
2023-04-26T02:49:09.118Z,100.00
2023-04-26T02:51:35.725Z,100.00
2023-04-26T02:54:04.539Z,100.00
2023-04-26T02:56:32.321Z,100.00
2023-04-26T02:58:58.835Z,100.00
2023-04-26T03:01:25.424Z,100.00
2023-04-26T03:03:52.524Z,100.00
2023-04-26T03:06:19.141Z,100.00
2023-04-26T03:08:45.747Z,100.00
2023-04-26T03:11:12.385Z,100.00
2023-04-26T03:13:38.917Z,100.00
2023-04-26T03:16:06.353Z,100.00
2023-04-26T03:18:32.924Z,100.00
2023-04-26T03:20:59.517Z,100.00
2023-04-26T03:23:26.440Z,100.00
2023-04-26T03:25:53.272Z,100.00
2023-04-26T03:28:19.821Z,100.00
2023-04-26T03:30:46.495Z,100.00
2023-04-26T03:33:13.727Z,100.00
2023-04-26T03:35:40.416Z,100.00
2023-04-26T03:38:07.126Z,100.00
2023-04-26T03:40:33.688Z,100.00
2023-04-26T03:43:00.349Z,100.00
2023-04-26T03:45:27.025Z,100.00
2023-04-26T03:47:53.950Z,100.00
2023-04-26T03:50:20.839Z,100.00
2023-04-26T03:52:47.355Z,100.00
2023-04-26T03:55:14.118Z,100.00
2023-04-26T03:57:40.807Z,100.00
2023-04-26T04:00:13.513Z,100.00
2023-04-26T04:02:40.711Z,100.00
2023-04-26T04:05:08.483Z,100.00
2023-04-26T04:07:35.358Z,100.00
2023-04-26T04:10:02.095Z,100.00
2023-04-26T04:12:28.759Z,100.00
2023-04-26T04:14:55.354Z,100.00
2023-04-26T04:17:22.131Z,100.00
2023-04-26T04:19:48.726Z,100.00
2023-04-26T04:22:15.416Z,100.00
2023-04-26T04:24:42.972Z,100.00
2023-04-26T04:27:09.685Z,100.00
2023-04-26T04:29:36.389Z,100.00
2023-04-26T04:32:03.199Z,100.00
2023-04-26T04:34:30.331Z,100.00
2023-04-26T04:36:56.905Z,100.00
2023-04-26T04:39:23.434Z,100.00
2023-04-26T04:41:50.089Z,100.00
2023-04-26T04:44:17.679Z,100.00
2023-04-26T04:46:44.703Z,100.00
2023-04-26T04:49:15.455Z,100.00
2023-04-26T04:51:41.972Z,100.00
2023-04-26T04:54:17.056Z,100.00
2023-04-26T04:56:44.366Z,100.00
2023-04-26T04:59:11.946Z,100.00
2023-04-26T05:01:38.751Z,100.00
2023-04-26T05:04:07.010Z,100.00
2023-04-26T05:06:33.775Z,100.00
2023-04-26T05:09:01.575Z,100.00
2023-04-26T05:11:28.211Z,100.00
2023-04-26T05:13:54.949Z,100.00
2023-04-26T05:16:21.640Z,100.00
2023-04-26T05:18:48.274Z,100.00
2023-04-26T05:21:14.928Z,100.00
2023-04-26T05:23:41.781Z,100.00
2023-04-26T05:26:10.681Z,100.00
2023-04-26T05:28:37.277Z,100.00
2023-04-26T05:31:04.232Z,100.00
2023-04-26T05:33:31.033Z,100.00
2023-04-26T05:35:58.608Z,100.00
2023-04-26T05:38:25.625Z,100.00
2023-04-26T05:40:52.209Z,100.00
2023-04-26T05:43:18.823Z,100.00
2023-04-26T05:45:56.277Z,100.00
2023-04-26T05:48:24.687Z,100.00
2023-04-26T05:50:52.247Z,100.00
2023-04-26T05:53:19.683Z,100.00
2023-04-26T05:55:46.330Z,100.00
2023-04-26T05:58:13.075Z,100.00
2023-04-26T06:00:39.900Z,100.00
2023-04-26T06:03:06.629Z,100.00
2023-04-26T06:05:33.553Z,100.00
2023-04-26T06:08:01.549Z,100.00
2023-04-26T06:10:28.275Z,100.00
2023-04-26T06:12:54.850Z,100.00
2023-04-26T06:15:21.715Z,100.00
2023-04-26T06:17:48.441Z,100.00
2023-04-26T06:20:15.000Z,100.00
2023-04-26T06:22:41.777Z,100.00
2023-04-26T06:25:09.826Z,100.00
2023-04-26T06:27:36.347Z,100.00
2023-04-26T06:30:03.470Z,100.00
2023-04-26T06:32:30.515Z,100.00
2023-04-26T06:34:57.066Z,100.00
2023-04-26T06:37:23.745Z,100.00
2023-04-26T06:39:50.457Z,100.00
2023-04-26T06:42:17.064Z,100.00
2023-04-26T06:44:43.645Z,100.00
2023-04-26T06:47:11.287Z,100.00
2023-04-26T06:49:38.484Z,100.00
2023-04-26T06:52:08.256Z,100.00
2023-04-26T06:54:39.899Z,100.00
2023-04-26T06:57:09.432Z,100.00
2023-04-26T06:59:36.650Z,100.00
2023-04-26T07:02:03.333Z,100.00
2023-04-26T07:04:29.999Z,100.00
2023-04-26T07:06:57.885Z,100.00
2023-04-26T07:09:24.500Z,100.00
2023-04-26T07:11:51.200Z,100.00
2023-04-26T07:14:18.140Z,100.00
2023-04-26T07:16:45.199Z,100.00
2023-04-26T07:19:11.997Z,100.00
2023-04-26T07:21:38.494Z,100.00
2023-04-26T07:24:06.390Z,100.00
2023-04-26T07:26:33.022Z,100.00
2023-04-26T07:29:00.921Z,100.00
2023-04-26T07:31:27.482Z,100.00
2023-04-26T07:33:54.310Z,100.00
2023-04-26T07:36:23.010Z,100.00
2023-04-26T07:38:50.732Z,100.00
2023-04-26T07:41:17.891Z,100.00
2023-04-26T07:43:44.500Z,100.00
2023-04-26T07:46:11.021Z,100.00
2023-04-26T07:48:37.661Z,100.00
2023-04-26T07:51:09.103Z,100.00
2023-04-26T07:53:35.697Z,100.00
2023-04-26T07:56:06.139Z,100.00
2023-04-26T07:58:33.065Z,100.00
2023-04-26T08:01:00.603Z,100.00
2023-04-26T08:03:28.239Z,100.00
2023-04-26T08:05:55.404Z,100.00
2023-04-26T08:08:23.302Z,100.00
2023-04-26T08:10:49.839Z,100.00
2023-04-26T08:13:16.835Z,100.00
2023-04-26T08:15:43.449Z,100.00
2023-04-26T08:18:10.023Z,100.00
2023-04-26T08:20:36.637Z,100.00
2023-04-26T08:23:03.242Z,100.00
2023-04-26T08:25:30.130Z,100.00
2023-04-26T08:27:56.876Z,100.00
2023-04-26T08:30:23.817Z,100.00
2023-04-26T08:32:50.436Z,100.00
2023-04-26T08:35:17.083Z,100.00
2023-04-26T08:37:44.897Z,100.00
2023-04-26T08:40:11.607Z,100.00
2023-04-26T08:42:45.663Z,100.00
2023-04-26T08:45:12.258Z,100.00
2023-04-26T08:47:47.656Z,100.00
2023-04-26T08:50:16.309Z,100.00
2023-04-26T08:52:43.314Z,100.00
2023-04-26T08:55:12.744Z,100.00
2023-04-26T08:57:40.919Z,100.00
2023-04-26T09:00:15.761Z,100.00
2023-04-26T09:02:46.477Z,100.00
2023-04-26T09:05:14.006Z,100.00
2023-04-26T09:07:47.349Z,100.00
2023-04-26T09:10:19.911Z,100.00
2023-04-26T09:12:46.742Z,100.00
2023-04-26T09:15:15.649Z,100.00
2023-04-26T09:17:42.344Z,100.00
2023-04-26T09:20:28.008Z,100.00
2023-04-26T09:23:06.312Z,98.40
2023-04-26T09:25:33.450Z,100.00
2023-04-26T09:28:01.065Z,100.00
2023-04-26T09:30:29.098Z,100.00
2023-04-26T09:32:57.215Z,100.00
2023-04-26T09:35:29.663Z,100.00
2023-04-26T09:38:04.254Z,100.00
2023-04-26T09:40:36.005Z,100.00
2023-04-26T09:43:22.150Z,100.00
2023-04-26T09:45:56.169Z,100.00
2023-04-26T09:48:23.694Z,99.20
2023-04-26T09:50:53.116Z,99.97
2023-04-26T09:53:42.761Z,100.00
2023-04-26T09:56:11.096Z,100.00
2023-04-26T09:58:40.397Z,100.00
2023-04-26T10:01:11.884Z,100.00
2023-04-26T10:03:39.611Z,100.00
2023-04-26T10:06:06.867Z,100.00
2023-04-26T10:08:33.735Z,100.00
2023-04-26T10:11:02.333Z,100.00
2023-04-26T10:13:29.259Z,100.00
2023-04-26T10:15:56.650Z,100.00
2023-04-26T10:18:23.218Z,100.00
2023-04-26T10:20:53.823Z,100.00
2023-04-26T10:23:25.698Z,100.00
2023-04-26T10:25:52.874Z,100.00
2023-04-26T10:28:45.607Z,100.00
2023-04-26T10:31:12.517Z,100.00
2023-04-26T10:33:39.284Z,99.97
2023-04-26T10:36:07.513Z,100.00
2023-04-26T10:38:42.432Z,100.00
2023-04-26T10:41:36.219Z,100.00
2023-04-26T10:44:41.768Z,100.00
2023-04-26T10:47:24.836Z,100.00
2023-04-26T10:49:51.649Z,100.00
2023-04-26T10:52:20.572Z,100.00
2023-04-26T10:54:57.393Z,98.96
2023-04-26T10:57:45.812Z,96.63
2023-04-26T11:00:17.298Z,95.62
2023-04-26T11:03:00.068Z,96.77
2023-04-26T11:05:42.729Z,94.38
2023-04-26T11:08:32.254Z,92.25
2023-04-26T11:11:04.981Z,93.38
2023-04-26T11:13:32.972Z,91.47
2023-04-26T11:16:04.229Z,93.35
2023-04-26T11:18:32.104Z,92.04
2023-04-26T11:20:59.627Z,91.74
2023-04-26T11:23:28.831Z,90.26
2023-04-26T11:26:03.695Z,91.34
2023-04-26T11:28:35.261Z,90.14
2023-04-26T11:31:04.307Z,91.81
2023-04-26T11:33:31.415Z,91.41
2023-04-26T11:35:58.885Z,90.44
2023-04-26T11:38:26.641Z,89.82
2023-04-26T11:40:57.498Z,84.15
2023-04-26T11:43:37.219Z,83.70
2023-04-26T11:46:05.387Z,84.98
2023-04-26T11:48:33.756Z,84.91
2023-04-26T11:51:00.947Z,87.17
2023-04-26T11:53:42.028Z,86.24
2023-04-26T11:56:19.366Z,86.65
2023-04-26T11:58:47.469Z,86.33
2023-04-26T12:01:21.952Z,85.69
2023-04-26T12:03:51.436Z,83.13
2023-04-26T12:06:18.305Z,84.30
2023-04-26T12:08:51.778Z,84.63
2023-04-26T12:11:19.569Z,76.76
2023-04-26T12:13:47.502Z,72.54
2023-04-26T12:16:25.736Z,73.00
2023-04-26T12:18:53.776Z,76.07
2023-04-26T12:21:20.679Z,74.99
2023-04-26T12:23:48.213Z,75.16
2023-04-26T12:26:15.432Z,76.45
2023-04-26T12:28:42.400Z,73.29
2023-04-26T12:31:09.397Z,72.67
2023-04-26T12:33:36.583Z,72.69
2023-04-26T12:36:11.291Z,69.99
2023-04-26T12:38:39.070Z,71.08
2023-04-26T12:41:05.771Z,70.98
2023-04-26T12:43:32.768Z,70.72
2023-04-26T12:45:59.358Z,68.31
2023-04-26T12:48:26.122Z,66.22
2023-04-26T12:50:52.684Z,65.28
2023-04-26T12:53:19.357Z,67.83
2023-04-26T12:55:46.381Z,63.66
2023-04-26T12:58:13.098Z,64.07
2023-04-26T13:00:39.924Z,66.20
2023-04-26T13:03:06.742Z,67.52
2023-04-26T13:05:33.607Z,68.14
2023-04-26T13:08:02.180Z,71.55
2023-04-26T13:10:28.899Z,71.44
2023-04-26T13:12:55.886Z,72.22
2023-04-26T13:15:24.725Z,75.05
2023-04-26T13:17:51.385Z,73.52
2023-04-26T13:20:18.170Z,72.98
2023-04-26T13:22:44.735Z,72.25
2023-04-26T13:25:13.193Z,72.61
2023-04-26T13:27:39.901Z,71.77
2023-04-26T13:30:07.356Z,73.24
2023-04-26T13:32:34.201Z,73.30
2023-04-26T13:35:00.860Z,73.44
2023-04-26T13:37:27.752Z,69.79
2023-04-26T13:39:54.559Z,69.61
2023-04-26T13:42:21.319Z,70.23
2023-04-26T13:44:47.941Z,68.10
2023-04-26T13:47:14.512Z,69.27
2023-04-26T13:49:44.973Z,68.89
2023-04-26T13:52:11.986Z,67.40
2023-04-26T13:54:40.254Z,67.14
2023-04-26T13:57:07.008Z,68.59
2023-04-26T13:59:33.773Z,66.27
2023-04-26T14:02:00.543Z,66.50
2023-04-26T14:04:27.598Z,65.52
2023-04-26T14:06:54.524Z,66.30
2023-04-26T14:09:21.339Z,65.76
2023-04-26T14:11:54.186Z,65.65
2023-04-26T14:14:27.324Z,65.59
2023-04-26T14:16:54.089Z,64.17
2023-04-26T14:19:20.772Z,63.00
2023-04-26T14:21:47.431Z,64.28
2023-04-26T14:24:14.069Z,64.00
2023-04-26T14:26:41.821Z,63.47
2023-04-26T14:29:08.404Z,62.73
2023-04-26T14:31:35.037Z,64.44
2023-04-26T14:34:01.723Z,61.28
2023-04-26T14:36:28.469Z,61.88
2023-04-26T14:38:55.021Z,62.39
2023-04-26T14:41:21.734Z,60.47
2023-04-26T14:43:48.837Z,61.39
2023-04-26T14:46:15.442Z,61.07
2023-04-26T14:48:43.917Z,60.42
2023-04-26T14:51:11.089Z,60.21
2023-04-26T14:53:38.700Z,59.66
2023-04-26T14:56:07.529Z,60.47
2023-04-26T14:58:34.319Z,60.24
2023-04-26T15:01:00.916Z,59.42
2023-04-26T15:03:27.715Z,57.73
2023-04-26T15:05:54.433Z,59.83
2023-04-26T15:08:20.955Z,59.29
2023-04-26T15:10:47.568Z,59.45
2023-04-26T15:13:14.176Z,60.77
2023-04-26T15:15:40.912Z,59.56
2023-04-26T15:18:07.550Z,59.46
2023-04-26T15:20:34.291Z,59.59
2023-04-26T15:23:00.904Z,59.23
2023-04-26T15:25:27.537Z,58.75
2023-04-26T15:27:54.157Z,59.26
2023-04-26T15:30:20.859Z,58.13
2023-04-26T15:32:49.356Z,58.31
2023-04-26T15:35:16.279Z,58.52
2023-04-26T15:37:44.211Z,58.30
2023-04-26T15:40:12.090Z,58.67
2023-04-26T15:42:39.283Z,57.99
2023-04-26T15:45:06.577Z,60.37
2023-04-26T15:47:35.052Z,59.68
2023-04-26T15:50:05.833Z,58.22
2023-04-26T15:52:38.620Z,58.95
2023-04-26T15:55:10.000Z,58.52
2023-04-26T15:57:36.807Z,59.16
2023-04-26T16:00:05.927Z,59.46
2023-04-26T16:02:32.539Z,59.46
2023-04-26T16:04:59.158Z,59.14
2023-04-26T16:07:26.551Z,59.79
2023-04-26T16:09:53.233Z,58.56
2023-04-26T16:12:19.824Z,59.73
2023-04-26T16:14:46.635Z,58.92
2023-04-26T16:17:13.457Z,60.67
2023-04-26T16:19:40.246Z,58.34
2023-04-26T16:22:06.755Z,59.32
2023-04-26T16:24:33.378Z,60.20
2023-04-26T16:27:00.061Z,59.01
2023-04-26T16:29:26.759Z,59.44
2023-04-26T16:31:53.419Z,60.13
2023-04-26T16:34:20.162Z,59.51
2023-04-26T16:36:46.873Z,58.70
2023-04-26T16:39:15.783Z,59.30
2023-04-26T16:41:42.866Z,58.94
2023-04-26T16:44:09.430Z,59.93
2023-04-26T16:46:36.407Z,60.84
2023-04-26T16:49:09.205Z,60.56
2023-04-26T16:51:37.328Z,60.94
2023-04-26T16:54:04.246Z,59.70
2023-04-26T16:56:30.865Z,60.46
2023-04-26T16:58:57.572Z,61.76
2023-04-26T17:01:24.199Z,61.03
2023-04-26T17:03:52.028Z,61.13
2023-04-26T17:06:19.456Z,62.18
2023-04-26T17:08:46.356Z,61.83
2023-04-26T17:11:16.693Z,63.73
2023-04-26T17:13:43.647Z,62.57
2023-04-26T17:16:10.365Z,61.31
2023-04-26T17:18:37.302Z,63.27
2023-04-26T17:21:04.835Z,62.99
2023-04-26T17:23:33.654Z,62.47
2023-04-26T17:26:01.269Z,64.70
2023-04-26T17:28:28.036Z,63.62
2023-04-26T17:30:54.705Z,64.47
2023-04-26T17:33:21.509Z,64.31
2023-04-26T17:35:48.210Z,63.91
2023-04-26T17:38:14.865Z,63.61
2023-04-26T17:40:41.636Z,63.97
2023-04-26T17:43:08.172Z,64.60
2023-04-26T17:45:34.772Z,63.10
2023-04-26T17:48:01.515Z,63.11
2023-04-26T17:50:28.630Z,63.82
2023-04-26T17:52:55.279Z,63.99
2023-04-26T17:55:22.019Z,65.88
2023-04-26T17:57:48.574Z,63.69
2023-04-26T18:00:15.692Z,64.64
2023-04-26T18:02:43.193Z,63.49
2023-04-26T18:05:10.337Z,63.51
2023-04-26T18:07:38.685Z,65.16
2023-04-26T18:10:06.588Z,65.20
2023-04-26T18:12:33.204Z,65.79
2023-04-26T18:14:59.950Z,66.19
2023-04-26T18:17:26.877Z,65.16
2023-04-26T18:19:53.621Z,67.70
2023-04-26T18:22:20.479Z,66.63
2023-04-26T18:24:47.049Z,66.79
2023-04-26T18:27:14.186Z,66.78
2023-04-26T18:29:41.419Z,67.73
2023-04-26T18:32:08.028Z,66.67
2023-04-26T18:34:34.648Z,67.56
2023-04-26T18:37:01.191Z,66.44
2023-04-26T18:39:27.763Z,66.18
2023-04-26T18:41:54.344Z,67.22
2023-04-26T18:44:21.175Z,67.03
2023-04-26T18:46:47.936Z,67.66
2023-04-26T18:49:14.732Z,68.23
2023-04-26T18:51:41.400Z,68.81
2023-04-26T18:54:07.953Z,69.12
2023-04-26T18:56:34.510Z,69.08
2023-04-26T18:59:01.073Z,69.76
2023-04-26T19:01:27.744Z,70.10
2023-04-26T19:03:54.672Z,69.94
2023-04-26T19:06:21.682Z,69.86
2023-04-26T19:08:48.329Z,69.63
2023-04-26T19:11:15.037Z,70.38
2023-04-26T19:13:41.616Z,71.36
2023-04-26T19:16:09.286Z,71.04
2023-04-26T19:18:37.333Z,72.10
2023-04-26T19:21:08.482Z,70.54
2023-04-26T19:23:35.966Z,71.48
2023-04-26T19:26:09.558Z,72.42
2023-04-26T19:28:37.684Z,72.92
2023-04-26T19:31:04.656Z,75.78
2023-04-26T19:33:32.561Z,75.46
2023-04-26T19:35:59.133Z,73.51
2023-04-26T19:38:25.749Z,74.58
2023-04-26T19:40:53.142Z,72.16
2023-04-26T19:43:20.150Z,72.66
2023-04-26T19:45:47.161Z,71.58
2023-04-26T19:48:13.920Z,71.00
2023-04-26T19:50:44.437Z,70.94
2023-04-26T19:53:13.182Z,72.07
2023-04-26T19:55:41.431Z,72.63
2023-04-26T19:58:10.417Z,69.53
2023-04-26T20:00:38.035Z,69.59
2023-04-26T20:03:05.553Z,70.15
2023-04-26T20:05:32.496Z,70.93
2023-04-26T20:07:59.072Z,70.23
2023-04-26T20:10:25.662Z,71.39
2023-04-26T20:12:53.310Z,73.42
2023-04-26T20:15:20.038Z,71.39
2023-04-26T20:17:46.980Z,69.94
2023-04-26T20:20:13.903Z,70.16
2023-04-26T20:22:41.588Z,71.67
2023-04-26T20:25:08.729Z,72.74
2023-04-26T20:27:35.464Z,70.84
2023-04-26T20:30:02.677Z,68.55
2023-04-26T20:32:29.205Z,70.10
2023-04-26T20:34:55.813Z,72.35
2023-04-26T20:37:22.631Z,70.75
2023-04-26T20:39:49.587Z,69.77
2023-04-26T20:42:16.275Z,67.05
2023-04-26T20:44:43.204Z,66.34
2023-04-26T20:47:09.830Z,66.85
2023-04-26T20:49:36.707Z,66.31
2023-04-26T20:52:03.485Z,67.74
2023-04-26T20:54:30.174Z,67.12
2023-04-26T20:56:56.882Z,70.23
2023-04-26T20:59:26.742Z,71.01
2023-04-26T21:01:53.728Z,69.86
2023-04-26T21:04:21.074Z,68.71
2023-04-26T21:06:47.990Z,67.47
2023-04-26T21:09:14.738Z,67.68
2023-04-26T21:11:41.580Z,70.91
2023-04-26T21:14:09.298Z,71.12
2023-04-26T21:16:36.147Z,67.28
2023-04-26T21:19:03.612Z,66.76
2023-04-26T21:21:30.336Z,63.59
2023-04-26T21:23:56.874Z,66.75
2023-04-26T21:26:23.482Z,64.18
2023-04-26T21:28:50.001Z,64.88
2023-04-26T21:31:16.697Z,65.60
2023-04-26T21:33:43.419Z,62.40
2023-04-26T21:36:10.047Z,62.57
2023-04-26T21:38:36.641Z,63.20
2023-04-26T21:41:03.210Z,63.38
2023-04-26T21:43:29.826Z,62.86
2023-04-26T21:45:58.060Z,62.85
2023-04-26T21:48:26.513Z,63.09
2023-04-26T21:50:53.615Z,63.23
2023-04-26T21:53:20.289Z,63.49
2023-04-26T21:55:53.965Z,63.58
2023-04-26T21:58:21.549Z,62.84
2023-04-26T22:00:48.868Z,63.53
2023-04-26T22:03:16.354Z,64.22
2023-04-26T22:05:43.225Z,64.32
2023-04-26T22:08:09.890Z,64.95
2023-04-26T22:10:36.522Z,64.79
2023-04-26T22:13:03.241Z,65.96
2023-04-26T22:15:30.012Z,65.33
2023-04-26T22:17:56.779Z,66.06
2023-04-26T22:20:23.520Z,66.25
2023-04-26T22:22:50.142Z,65.73
2023-04-26T22:25:16.749Z,65.77
2023-04-26T22:27:43.369Z,65.28
2023-04-26T22:30:24.104Z,64.43
2023-04-26T22:32:54.943Z,64.53
2023-04-26T22:35:22.826Z,64.00
2023-04-26T22:37:49.649Z,63.18
2023-04-26T22:40:16.932Z,63.42
2023-04-26T22:42:44.289Z,63.54
2023-04-26T22:45:12.193Z,63.85
2023-04-26T22:47:39.905Z,63.54
2023-04-26T22:50:07.686Z,63.10
2023-04-26T22:52:35.200Z,62.88
2023-04-26T22:55:01.980Z,62.39
2023-04-26T22:57:29.679Z,62.44
2023-04-26T22:59:56.421Z,61.86
2023-04-26T23:02:23.149Z,62.18
2023-04-26T23:04:49.886Z,63.15
2023-04-26T23:07:16.594Z,62.68
2023-04-26T23:09:43.360Z,63.09
2023-04-26T23:12:09.986Z,63.24
2023-04-26T23:14:36.568Z,62.91
2023-04-26T23:17:03.298Z,62.48
2023-04-26T23:19:29.837Z,62.81
2023-04-26T23:21:56.515Z,63.90
2023-04-26T23:24:23.151Z,63.99
2023-04-26T23:26:49.679Z,64.77
2023-04-26T23:29:16.293Z,64.39
2023-04-26T23:31:43.063Z,64.16
2023-04-26T23:34:09.721Z,62.25
2023-04-26T23:36:36.244Z,64.76
2023-04-26T23:39:02.868Z,63.31
2023-04-26T23:41:29.428Z,64.12
2023-04-26T23:43:55.977Z,62.27
2023-04-26T23:46:22.597Z,63.31
2023-04-26T23:48:49.114Z,60.99
2023-04-26T23:51:15.870Z,61.50
2023-04-26T23:53:42.448Z,60.55
2023-04-26T23:56:09.036Z,62.20
2023-04-26T23:58:35.577Z,61.58
